Terminal Aerodrome Forecast
Issued by NWS

Home | Current Version | Previous Version | Text Only | Print | Product List | Glossary On
Versions: 1 2 3 4 5 6 7 8 9 10 11 12 13
601
FTUS42 TJSJ 292320
TAFJBQ
TAF
TJBQ 292320Z 3000/3024 10012G16KT P6SM VCSH SCT025 BKN060
      TEMPO 3000/3001 6SM -RA BKN030
     FM301300 08015G22KT P6SM VCSH SCT026 SCT040 BKN060
     FM302300 09011KT P6SM FEW025 SCT060=

USA.gov is the U.S. government's official web portal to all federal, state and local government web resources and services.